Time;durP1;ratioP1;P1;durP2;ratioP2;P2;SDS_P1;SDS_P2;PMS_P1;PMS_P2;Temp;Humidity;BMP_temperature;BMP_pressure;BME280_temperature;BME280_humidity;BME280_pressure;Samples;Min_cycle;Max_cycle;Signal;HPM_P1;HPM_P2
2023/10/10 00:00:47;;;;;;;53.67;44.25;;;;;;;12.31;100.00;102080.00;5023036;28;20069;-79
2023/10/10 00:03:12;;;;;;;65.32;47.05;;;;;;;12.31;100.00;102070.41;5022392;28;20037;-79
2023/10/10 00:05:39;;;;;;;54.65;41.47;;;;;;;12.28;100.00;102075.66;5022129;28;20105;-78
2023/10/10 00:08:05;;;;;;;49.15;36.95;;;;;;;12.27;100.00;102078.31;5046656;28;20032;-78
2023/10/10 00:10:32;;;;;;;46.75;36.22;;;;;;;12.23;100.00;102074.84;5011803;28;20044;-78
2023/10/10 00:13:00;;;;;;;41.13;32.97;;;;;;;12.28;100.00;102088.72;5023910;28;20018;-78
2023/10/10 00:15:33;;;;;;;38.42;29.40;;;;;;;12.23;100.00;102082.69;5012991;28;20099;-78
2023/10/10 00:18:06;;;;;;;35.67;28.50;;;;;;;12.21;100.00;102083.59;5024898;28;20397;-79
2023/10/10 00:20:41;;;;;;;41.35;28.88;;;;;;;12.20;100.00;102077.50;5018803;28;20429;-78
2023/10/10 00:23:10;;;;;;;36.90;28.30;;;;;;;12.19;100.00;102076.59;5040467;28;20026;-79
2023/10/10 00:25:38;;;;;;;40.42;29.65;;;;;;;12.17;100.00;102067.06;5022056;28;20034;-79
2023/10/10 00:28:17;;;;;;;35.53;28.98;;;;;;;12.16;100.00;102075.78;5031002;28;20049;-78
2023/10/10 00:30:45;;;;;;;38.35;29.60;;;;;;;12.13;100.00;102066.25;5023269;28;20038;-78
2023/10/10 00:33:16;;;;;;;36.65;29.83;;;;;;;12.17;100.00;102072.31;5034969;28;20074;-78
2023/10/10 00:35:43;;;;;;;35.10;28.92;;;;;;;12.15;100.00;102066.22;5026179;28;20029;-78
2023/10/10 00:38:26;;;;;;;40.22;28.92;;;;;;;12.15;100.00;102079.28;5031245;28;20040;-78
2023/10/10 00:40:51;;;;;;;40.85;28.73;;;;;;;12.11;100.00;102067.13;5017196;28;20030;-78
2023/10/10 00:43:17;;;;;;;37.15;27.92;;;;;;;12.07;100.00;102065.44;5028019;28;20033;-78
2023/10/10 00:45:52;;;;;;;39.83;29.02;;;;;;;12.12;100.00;102071.47;5023973;28;20060;-78
2023/10/10 00:48:21;;;;;;;37.45;29.05;;;;;;;12.11;100.00;102064.53;5022563;28;20036;-78
2023/10/10 00:50:51;;;;;;;39.05;28.27;;;;;;;12.07;100.00;102068.06;5025312;28;20446;-78
2023/10/10 00:53:20;;;;;;;38.00;29.20;;;;;;;12.07;100.00;102057.59;5014674;28;20031;-78
2023/10/10 00:55:55;;;;;;;42.08;30.13;;;;;;;12.05;100.00;102061.97;5012925;28;20100;-78
2023/10/10 00:58:22;;;;;;;38.35;29.40;;;;;;;12.04;100.00;102066.34;5027810;28;20485;-78
2023/10/10 01:00:52;;;;;;;39.00;29.65;;;;;;;12.03;100.00;102061.09;5008209;28;20029;-78
2023/10/10 01:03:21;;;;;;;43.78;31.55;;;;;;;12.01;100.00;102058.53;5036258;28;20022;-79
2023/10/10 01:05:52;;;;;;;39.72;30.08;;;;;;;12.01;100.00;102047.22;5015803;28;20393;-78
2023/10/10 01:08:19;;;;;;;40.90;30.45;;;;;;;11.96;100.00;102047.22;5034706;28;20027;-79
2023/10/10 01:10:49;;;;;;;40.47;30.58;;;;;;;11.97;100.00;102040.25;5030801;28;20069;-78
2023/10/10 01:13:15;;;;;;;39.88;30.58;;;;;;;11.97;100.00;102040.25;5017489;28;20014;-78
2023/10/10 01:15:48;;;;;;;37.50;29.17;;;;;;;11.98;100.00;102042.00;5008675;28;20021;-78
2023/10/10 01:18:15;;;;;;;39.72;30.08;;;;;;;11.95;100.00;102035.91;5015167;28;20032;-78
2023/10/10 01:20:46;;;;;;;39.67;30.08;;;;;;;11.93;100.00;102037.69;5012971;28;20026;-79
2023/10/10 01:23:14;;;;;;;40.38;31.42;;;;;;;11.96;100.00;102031.56;5016270;28;20465;-79
2023/10/10 01:28:33;;;;;;;40.85;31.98;;;;;;;11.90;100.00;102027.28;5014000;28;20077;-79
2023/10/10 01:33:23;;;;;;;46.13;32.25;;;;;;;11.89;100.00;102025.53;5017107;28;20481;-79
2023/10/10 01:35:50;;;;;;;42.15;31.92;;;;;;;11.90;100.00;102029.00;5012269;28;20539;-79
2023/10/10 01:38:31;;;;;;;38.50;30.20;;;;;;;11.88;100.00;102021.19;5010718;28;20122;-79
2023/10/10 01:40:57;;;;;;;40.97;30.58;;;;;;;11.85;100.00;102013.38;5005767;28;20045;-79
2023/10/10 01:43:24;;;;;;;42.17;31.50;;;;;;;11.84;100.00;102014.28;5017650;28;20033;-79
2023/10/10 01:46:08;;;;;;;42.10;31.65;;;;;;;11.85;100.00;102007.28;5033595;28;20412;-78
2023/10/10 01:48:37;;;;;;;44.17;32.08;;;;;;;11.85;100.00;102013.38;5020416;28;20116;-78
2023/10/10 01:51:08;;;;;;;42.67;33.25;;;;;;;11.84;100.00;102001.22;5014871;28;20033;-78
2023/10/10 01:53:35;;;;;;;42.90;31.83;;;;;;;11.83;100.00;101998.56;5042288;28;20150;-78
2023/10/10 01:56:06;;;;;;;41.65;31.92;;;;;;;11.84;100.00;102001.22;5013225;28;20423;-79
2023/10/10 01:58:36;;;;;;;42.75;30.63;;;;;;;11.79;100.00;101994.25;5014733;28;20026;-78
2023/10/10 02:01:19;;;;;;;42.35;30.92;;;;;;;11.80;100.00;101999.44;5011370;28;20101;-78
2023/10/10 02:03:47;;;;;;;40.58;30.35;;;;;;;11.79;100.00;101987.28;5033681;28;20053;-78
2023/10/10 02:06:22;;;;;;;42.25;30.80;;;;;;;11.79;100.00;101995.13;5048570;28;20082;-78
2023/10/10 02:08:51;;;;;;;40.42;31.05;;;;;;;11.79;100.00;101986.41;5026788;28;20492;-79
2023/10/10 02:11:20;;;;;;;39.75;31.23;;;;;;;11.78;100.00;101982.94;5021455;28;20030;-78
2023/10/10 02:13:47;;;;;;;39.30;29.17;;;;;;;11.78;100.00;101980.34;5046387;28;20034;-78
2023/10/10 02:16:15;;;;;;;36.65;29.83;;;;;;;11.73;100.00;101982.09;5012839;28;20033;-79
2023/10/10 02:18:44;;;;;;;39.83;30.63;;;;;;;11.72;100.00;101976.03;5031277;28;20034;-79
2023/10/10 02:21:16;;;;;;;41.75;30.15;;;;;;;11.69;100.00;101973.44;5010997;28;20042;-79
2023/10/10 02:23:46;;;;;;;36.65;28.77;;;;;;;11.66;100.00;101975.22;5022449;28;20381;-79
2023/10/10 02:26:23;;;;;;;38.55;30.33;;;;;;;11.61;100.00;101969.19;5012237;28;20420;-79
2023/10/10 02:28:49;;;;;;;40.53;31.00;;;;;;;11.62;100.00;101968.31;5042900;28;20064;-79
2023/10/10 02:31:19;;;;;;;39.95;30.17;;;;;;;11.63;100.00;101964.81;5015099;28;20423;-79
2023/10/10 02:34:03;;;;;;;44.75;32.33;;;;;;;11.62;100.00;101969.16;5036997;28;20295;-79
2023/10/10 02:36:32;;;;;;;44.10;31.45;;;;;;;11.61;100.00;101962.22;5013279;28;20033;-79
2023/10/10 02:39:27;;;;;;;39.08;30.83;;;;;;;11.62;100.00;101961.31;5022825;28;20029;-79
2023/10/10 02:41:48;;;;;;;42.53;30.10;;;;;;;11.62;100.00;101958.72;4999024;28;20037;-78
2023/10/10 02:44:26;;;;;;;43.38;30.85;;;;;;;11.60;100.00;101957.00;5017772;28;20037;-79
2023/10/10 02:46:54;;;;;;;41.80;30.92;;;;;;;11.59;100.00;101957.88;5011647;28;20354;-78
2023/10/10 02:49:29;;;;;;;47.05;32.10;;;;;;;11.54;100.00;101955.31;5044664;28;20117;-79
2023/10/10 02:51:55;;;;;;;43.50;31.05;;;;;;;11.55;100.00;101970.13;5016737;28;20036;-79
2023/10/10 02:54:36;;;;;;;40.53;30.50;;;;;;;11.47;100.00;101957.09;5015314;28;20518;-79
2023/10/10 02:59:52;;;;;;;43.17;32.85;;;;;;;11.52;100.00;101957.06;5027283;28;20119;-79
2023/10/10 03:02:19;;;;;;;45.60;32.67;;;;;;;11.53;100.00;101966.63;5023875;28;20022;-79
2023/10/10 03:07:29;;;;;;;45.65;31.70;;;;;;;11.53;100.00;101963.16;5032583;28;20117;-78
2023/10/10 03:12:49;;;;;;;43.35;32.03;;;;;;;11.53;100.00;101957.94;4982814;28;20590;-79
2023/10/10 03:17:49;;;;;;;49.80;32.83;;;;;;;11.53;100.00;101952.72;5016481;28;20477;-78
2023/10/10 03:21:06;;;;;;;44.83;32.20;;;;;;;11.47;100.00;101954.50;5018396;28;20461;-78
2023/10/10 05:25:13;;;;;;;59.72;38.78;;;;;;;11.18;100.00;101904.28;5013224;28;19920;-78
2023/10/10 05:27:41;;;;;;;62.40;37.97;;;;;;;11.16;100.00;101906.06;5017218;28;20194;-79
2023/10/10 05:30:07;;;;;;;61.97;38.25;;;;;;;11.10;100.00;101899.16;5039754;28;20026;-79
2023/10/10 05:32:33;;;;;;;57.95;37.88;;;;;;;11.07;100.00;101899.19;5013394;28;20037;-79
2023/10/10 05:34:58;;;;;;;59.20;38.65;;;;;;;11.11;100.00;101900.00;5018278;28;20025;-79
2023/10/10 05:37:25;;;;;;;57.80;37.45;;;;;;;11.09;100.00;101893.97;5010534;28;20022;-79
2023/10/10 05:39:56;;;;;;;62.55;38.88;;;;;;;11.04;100.00;101895.72;5017465;28;20489;-79
2023/10/10 05:42:25;;;;;;;56.42;37.50;;;;;;;11.04;100.00;101901.81;5023446;28;20041;-79
2023/10/10 05:44:51;;;;;;;60.30;36.78;;;;;;;11.03;100.00;101889.66;5040802;28;20434;-79
2023/10/10 05:47:17;;;;;;;64.03;37.60;;;;;;;11.02;100.00;101888.78;5015718;28;20580;-79
2023/10/10 05:49:43;;;;;;;55.85;36.47;;;;;;;10.99;100.00;101894.03;5017166;28;20025;-79
2023/10/10 05:52:08;;;;;;;57.30;35.33;;;;;;;10.97;100.00;101898.38;5031574;28;20450;-79
2023/10/10 05:54:33;;;;;;;60.20;35.78;;;;;;;10.99;100.00;101903.63;5023355;28;20029;-79
2023/10/10 05:56:59;;;;;;;57.78;36.50;;;;;;;10.98;100.00;101904.47;5010998;28;20030;-79
2023/10/10 05:59:24;;;;;;;54.13;34.95;;;;;;;10.96;100.00;101895.81;5037865;28;20116;-79
2023/10/10 06:01:50;;;;;;;54.17;35.58;;;;;;;10.98;100.00;101897.50;5036026;28;20037;-79
2023/10/10 06:04:15;;;;;;;54.63;34.00;;;;;;;10.95;100.00;101896.66;5021359;28;20024;-79
2023/10/10 06:06:43;;;;;;;51.20;34.33;;;;;;;10.98;100.00;101892.28;4999300;28;20612;-79
2023/10/10 06:09:18;;;;;;;46.78;32.97;;;;;;;11.00;100.00;101890.53;5032122;28;20120;-79
2023/10/10 06:11:44;;;;;;;48.50;32.25;;;;;;;11.00;100.00;101887.06;5006999;28;20036;-79
2023/10/10 06:14:09;;;;;;;50.58;33.20;;;;;;;11.00;100.00;101889.69;5036322;28;20034;-79
2023/10/10 06:16:35;;;;;;;51.22;33.03;;;;;;;11.02;100.00;101894.00;5007016;28;20061;-79
2023/10/10 06:19:01;;;;;;;45.22;32.30;;;;;;;11.01;100.00;101892.25;5012028;28;20108;-79
2023/10/10 06:21:29;;;;;;;46.22;31.75;;;;;;;11.05;100.00;101894.84;5019018;28;20033;-79
2023/10/10 06:23:55;;;;;;;46.65;32.60;;;;;;;11.00;100.00;101893.16;5002864;28;20026;-79
2023/10/10 06:26:21;;;;;;;48.70;32.53;;;;;;;11.02;100.00;101895.75;5022507;28;20075;-79
2023/10/10 06:28:51;;;;;;;46.15;31.60;;;;;;;11.05;100.00;101884.41;5028154;28;20042;-79
2023/10/10 06:31:19;;;;;;;42.22;29.58;;;;;;;11.07;100.00;101893.09;5030990;28;20026;-79
2023/10/10 06:33:49;;;;;;;44.53;29.63;;;;;;;11.07;100.00;101880.06;5026394;28;20053;-79
2023/10/10 06:36:32;;;;;;;46.03;29.02;;;;;;;11.09;100.00;101878.31;5035709;28;20109;-79
2023/10/10 06:41:36;;;;;;;42.60;29.15;;;;;;;11.14;100.00;101887.81;5026508;28;20039;-79
2023/10/10 06:44:04;;;;;;;44.08;29.73;;;;;;;11.16;100.00;101886.06;5024782;28;20078;-78
2023/10/10 06:46:32;;;;;;;41.72;27.27;;;;;;;11.19;100.00;101880.81;5012189;28;20444;-79
2023/10/10 06:49:06;;;;;;;41.95;28.15;;;;;;;11.23;100.00;101890.34;5022429;28;20033;-79
2023/10/10 06:51:33;;;;;;;42.20;28.70;;;;;;;11.28;100.00;101878.97;5003871;28;20022;-79
2023/10/10 06:53:59;;;;;;;41.95;28.15;;;;;;;11.30;100.00;101885.91;5014349;28;20390;-80
2023/10/10 06:59:20;;;;;;;43.47;28.95;;;;;;;11.41;100.00;101878.84;5016686;28;20102;-80
2023/10/10 07:01:46;;;;;;;40.95;26.90;;;;;;;11.43;100.00;101871.84;5000013;28;20041;-79
2023/10/10 07:04:13;;;;;;;46.00;27.73;;;;;;;11.51;100.00;101882.25;5011266;28;20033;-79
2023/10/10 07:06:48;;;;;;;39.03;27.33;;;;;;;11.55;100.00;101883.94;5006620;28;20443;-79
2023/10/10 07:09:14;;;;;;;42.42;29.08;;;;;;;11.62;100.00;101884.72;5038187;28;20033;-79
2023/10/10 07:11:43;;;;;;;42.47;27.45;;;;;;;11.64;100.00;101877.72;5021654;28;20021;-80
2023/10/10 07:14:11;;;;;;;35.95;27.25;;;;;;;11.68;100.00;101868.97;5037861;28;20025;-79
2023/10/10 07:16:42;;;;;;;43.05;28.13;;;;;;;11.75;100.00;101875.00;5028797;28;20062;-79
2023/10/10 07:19:26;;;;;;;39.35;26.90;;;;;;;11.82;100.00;101874.03;5011193;28;20063;-80
2023/10/10 07:21:51;;;;;;;38.00;26.50;;;;;;;11.85;100.00;101861.84;5012600;28;20495;-79
2023/10/10 07:24:18;;;;;;;43.13;25.65;;;;;;;11.91;100.00;101868.75;5035569;28;20034;-80
2023/10/10 07:26:46;;;;;;;35.60;25.85;;;;;;;11.95;100.00;101868.66;5012370;28;20049;-80
2023/10/10 07:29:57;;;;;;;38.92;26.60;;;;;;;11.99;100.00;101860.78;5036841;28;20139;-80
2023/10/10 07:32:27;;;;;;;;;;;;;;;12.08;100.00;101861.53;5017979;28;20059;-80
2023/10/10 07:34:54;;;;;;;41.25;26.35;;;;;;;12.10;100.00;101870.22;5003947;28;19945;-79
2023/10/10 07:37:22;;;;;;;33.58;25.13;;;;;;;12.15;100.00;101865.78;5015095;28;20477;-79
2023/10/10 07:42:32;;;;;;;;;;;;;;;12.24;100.00;101869.19;5019861;28;20062;-79
2023/10/10 07:44:58;;;;;;;35.65;25.48;;;;;;;12.25;100.00;101860.44;5019671;28;19992;-80
2023/10/10 07:47:31;;;;;;;37.38;24.92;;;;;;;12.28;100.00;101856.03;5022235;28;20033;-80
2023/10/10 07:49:59;;;;;;;;;;;;;;;12.37;100.00;101850.66;5032092;28;20026;-79
2023/10/10 07:52:25;;;;;;;39.22;26.08;;;;;;;12.45;100.00;101852.28;5014486;28;20276;-80
2023/10/10 07:54:53;;;;;;;38.08;26.55;;;;;;;12.52;100.00;101860.00;5009602;28;20040;-79
2023/10/10 07:57:22;;;;;;;37.33;25.33;;;;;;;12.57;100.00;101858.22;5006637;28;20076;-80
2023/10/10 07:59:58;;;;;;;36.75;25.42;;;;;;;12.64;100.00;101857.22;5048416;28;20024;-80
2023/10/10 08:02:37;;;;;;;38.15;24.70;;;;;;;12.72;100.00;101862.34;5032047;28;20025;-80
2023/10/10 08:05:09;;;;;;;36.05;23.98;;;;;;;12.80;100.00;101854.38;5048274;28;20024;-79
2023/10/10 08:07:35;;;;;;;36.78;23.25;;;;;;;12.91;100.00;101855.03;5012531;28;20033;-80
2023/10/10 08:13:00;;;;;;;36.05;22.90;;;;;;;13.21;100.00;101863.25;5011093;28;20164;-80
2023/10/10 08:15:26;;;;;;;30.20;22.23;;;;;;;13.29;100.00;101864.88;5043383;28;20104;-79
2023/10/10 08:17:54;;;;;;;31.55;22.05;;;;;;;13.38;100.00;101865.59;5021291;28;20026;-79
2023/10/10 08:23:04;;;;;;;31.58;20.25;;;;;;;13.51;100.00;101874.97;5015442;28;20469;-80
2023/10/10 08:25:29;;;;;;;29.25;19.50;;;;;;;13.53;100.00;101858.28;5042610;28;20047;-80
2023/10/10 08:27:55;;;;;;;29.70;19.40;;;;;;;13.59;100.00;101859.94;5024746;28;20471;-80
2023/10/10 08:30:25;;;;;;;31.17;20.25;;;;;;;13.61;100.00;101866.03;5043436;28;20452;-80
2023/10/10 08:32:54;;;;;;;26.40;19.25;;;;;;;13.60;100.00;101859.03;5027131;28;20385;-79
2023/10/10 08:35:21;;;;;;;28.73;18.27;;;;;;;13.64;100.00;101863.34;5043373;28;20183;-80
2023/10/10 08:37:46;;;;;;;25.65;18.08;;;;;;;13.67;100.00;101865.00;5028067;28;20438;-79
2023/10/10 08:40:19;;;;;;;25.17;18.38;;;;;;;13.68;100.00;101862.38;5043687;28;20025;-80
2023/10/10 08:42:51;;;;;;;25.27;18.48;;;;;;;13.76;100.00;101865.69;5028819;28;20505;-80
2023/10/10 08:45:24;;;;;;;26.40;18.95;;;;;;;13.80;100.00;101862.13;5011695;28;20388;-80
2023/10/10 08:47:52;;;;;;;24.02;16.95;;;;;;;13.82;100.00;101870.81;5029921;28;20405;-80
2023/10/10 08:50:18;;;;;;;29.85;18.63;;;;;;;13.83;100.00;101858.56;5045963;28;20021;-80
2023/10/10 08:52:43;;;;;;;24.33;17.63;;;;;;;13.85;100.00;101863.78;5032061;28;20488;-79
2023/10/10 08:55:10;;;;;;;22.90;16.77;;;;;;;13.89;100.00;101868.91;5044922;28;20541;-79
2023/10/10 08:57:38;;;;;;;29.65;16.65;;;;;;;13.93;100.00;101861.84;5032484;28;20037;-79
2023/10/10 09:00:12;;;;;;;28.73;16.60;;;;;;;13.98;100.00;101870.50;5047149;28;20101;-79
2023/10/10 09:02:39;;;;;;;22.48;15.93;;;;;;;14.03;100.00;101864.28;5009521;28;20033;-80
2023/10/10 09:05:06;;;;;;;26.10;16.08;;;;;;;14.11;100.00;101863.22;5047733;28;20035;-80
2023/10/10 09:07:32;;;;;;;23.55;15.77;;;;;;;14.22;100.00;101863.84;5009717;28;20040;-79
2023/10/10 09:10:13;;;;;;;28.30;15.65;;;;;;;14.32;100.00;101862.75;5019208;28;20496;-79
2023/10/10 09:12:52;;;;;;;20.75;16.08;;;;;;;14.38;100.00;101846.84;5023918;28;20032;-79
2023/10/10 09:15:18;;;;;;;23.52;15.32;;;;;;;14.55;100.00;101862.28;5041009;28;20025;-79
2023/10/10 09:17:45;;;;;;;25.38;14.45;;;;;;;14.66;100.00;101864.63;5023835;28;20033;-79
2023/10/10 09:20:23;;;;;;;21.88;14.52;;;;;;;14.70;100.00;101861.88;5041256;28;20486;-79
2023/10/10 09:22:52;;;;;;;20.52;14.15;;;;;;;14.82;100.00;101865.13;5025747;28;20033;-79
2023/10/10 09:25:25;;;;;;;24.17;13.60;;;;;;;14.85;100.00;101859.78;5042091;28;20025;-79
2023/10/10 09:27:58;;;;;;;18.40;13.13;;;;;;;14.93;100.00;101860.44;5025932;28;20557;-79
2023/10/10 09:30:31;;;;;;;19.50;14.40;;;;;;;14.98;100.00;101858.59;5042403;28;20041;-80
2023/10/10 09:33:45;;;;;;;23.88;13.85;;;;;;;15.11;100.00;101861.75;5026391;28;20037;-79
2023/10/10 09:36:08;;;;;;;22.27;13.90;;;;;;;15.17;100.00;101856.31;5021278;28;20481;-79
2023/10/10 09:38:36;;;;;;;21.80;13.10;;;;;;;15.20;100.00;101858.84;5019599;28;20367;-79
2023/10/10 09:41:26;;;;;;;19.52;12.77;;;;;;;15.28;100.00;101870.03;5050103;28;20373;-79
2023/10/10 09:57:40;;;;;;;;;;;;;;;15.71;100.00;101862.78;5025306;28;20048;-76
2023/10/10 10:00:15;;;;;;;17.42;12.75;;;;;;;15.75;100.00;101867.03;5012956;28;20379;-76
2023/10/10 10:02:43;;;;;;;20.85;12.60;;;;;;;15.64;100.00;101825.25;5019887;28;20029;-79
2023/10/10 10:05:18;;;;;;;16.95;11.50;;;;;;;15.84;100.00;101854.47;5020305;28;20050;-79
2023/10/10 10:08:21;;;;;;;18.73;12.52;;;;;;;15.94;100.00;101862.97;5012515;28;20082;-79
2023/10/10 10:11:25;;;;;;;19.17;13.15;;;;;;;16.10;100.00;101855.47;5006154;28;20033;-78
2023/10/10 10:13:51;;;;;;;;;;;;;;;16.27;100.00;101849.69;5008599;28;20022;-79
2023/10/10 10:16:25;;;;;;;19.98;12.10;;;;;;;16.45;100.00;101851.75;5023489;28;19982;-79
2023/10/10 10:18:52;;;;;;;;;;;;;;;16.54;100.00;101850.56;5008794;28;20040;-79
2023/10/10 10:21:19;;;;;;;;;;;;;;;16.62;100.00;101848.56;5019135;28;19967;-79
2023/10/10 10:23:47;;;;;;;;;;;;;;;16.69;100.00;101847.44;5025950;28;19924;-80
2023/10/10 10:28:56;;;;;;;;;;;;;;;16.79;100.00;101843.63;5012329;28;19926;-76
2023/10/10 10:31:29;;;;;;;;;;;;;;;16.85;100.00;101835.53;5025818;28;19921;-76
2023/10/10 10:34:08;;;;;;;;;;;;;;;16.95;100.00;101837.84;5036727;28;19970;-76
2023/10/10 10:36:41;;;;;;;;;;;;;;;17.04;100.00;101841.03;5027346;28;20566;-76
2023/10/10 10:39:35;;;;;;;;;;;;;;;17.14;100.00;101841.56;5027726;28;19926;-76
2023/10/10 10:42:00;;;;;;;;;;;;;;;17.26;100.00;101850.81;5024212;28;19926;-76
2023/10/10 10:44:43;;;;;;;;;;;;;;;17.33;100.00;101841.78;5047430;28;19915;-76
2023/10/10 10:47:11;;;;;;;;;;;;;;;17.43;100.00;101837.00;5030045;28;20324;-76
2023/10/10 10:49:39;;;;;;;;;;;;;;;17.58;100.00;101825.91;5024865;28;19935;-76
2023/10/10 10:52:17;;;;;;;;;;;;;;;17.69;100.00;101831.66;5029277;28;19914;-76
2023/10/10 10:54:43;;;;;;;;;;;;;;;17.81;100.00;101822.44;5047912;28;19961;-76
2023/10/10 10:57:13;;;;;;;;;;;;;;;17.97;100.00;101828.84;5029913;28;19917;-76
2023/10/10 10:59:54;;;;;;;;;;;;;;;18.09;100.00;101831.94;5034633;28;20395;-76
2023/10/10 11:02:29;;;;;;;;;;;;;;;18.21;100.00;101831.44;5021904;28;20030;-77
2023/10/10 11:04:54;;;;;;;;;;;;;;;18.33;100.00;101823.03;5051924;28;19919;-76
2023/10/10 11:07:28;;;;;;;;;;;;;;;18.48;100.00;101819.78;5013503;28;19974;-76
2023/10/10 11:09:54;;;;;;;;;;;;;;;18.62;100.00;101821.84;5042298;28;20000;-76
2023/10/10 11:12:31;;;;;;;;;;;;;;;18.75;100.00;101816.94;5026634;28;20419;-76
2023/10/10 11:14:56;;;;;;;;;;;;;;;18.87;100.00;101810.31;5043669;28;20003;-76
2023/10/10 11:17:21;;;;;;;;;;;;;;;18.99;100.00;101808.91;5027077;28;20353;-76
2023/10/10 11:19:47;;;;;;;;;;;;;;;19.10;100.00;101802.22;5045491;28;19917;-76
2023/10/10 11:22:15;;;;;;;;;;;;;;;19.19;100.00;101800.94;5030961;28;19917;-76
2023/10/10 11:24:46;;;;;;;;;;;;;;;19.28;100.00;101797.91;5040765;28;19929;-76
2023/10/10 11:30:11;;;;;;;;;;;;;;;19.46;100.00;101795.38;5014880;28;19928;-77
2023/10/10 11:32:36;;;;;;;;;;;;;;;19.53;100.00;101795.00;5027559;27;19924;-77
2023/10/10 11:35:17;;;;;;;;;;;;;;;19.64;100.00;101781.31;5003479;28;19924;-77
2023/10/10 11:37:48;;;;;;;;;;;;;;;19.91;100.00;101787.09;5047856;28;19917;-78
2023/10/10 11:40:19;;;;;;;;;;;;;;;20.29;100.00;101782.59;5015816;28;19974;-79
2023/10/10 11:42:48;;;;;;;;;;;;;;;20.80;100.00;101788.03;5013532;28;19917;-79
2023/10/10 11:45:25;;;;;;;;;;;;;;;21.27;100.00;101782.03;5010706;28;19952;-80
2023/10/10 11:47:51;;;;;;;;;;;;;;;21.67;100.00;101778.09;5019178;28;20342;-80
2023/10/10 11:50:17;;;;;;;;;;;;;;;22.09;100.00;101768.66;5034484;28;20387;-80
2023/10/10 11:52:52;;;;;;;;;;;;;;;22.51;100.00;101780.44;5017320;28;19958;-80
2023/10/10 11:55:20;;;;;;;;;;;;;;;22.72;100.00;101767.66;5025575;28;19925;-78
2023/10/10 11:57:46;;;;;;;;;;;;;;;23.00;100.00;101763.38;5017528;28;19917;-77
2023/10/10 12:00:11;;;;;;;;;;;;;;;23.26;100.00;101762.63;5016943;28;19924;-78
2023/10/10 12:02:40;;;;;;;;;;;;;;;23.53;100.00;101748.53;5017752;28;19963;-78
2023/10/10 12:08:06;;;;;;;;;;;;;;;24.11;100.00;101750.09;5037509;28;19931;-77
2023/10/10 12:13:09;;;;;;;;;;;;;;;24.33;100.00;101741.53;5015171;28;19925;-79
2023/10/10 12:15:38;;;;;;;;;;;;;;;24.44;100.00;101747.03;5029724;28;19923;-78
2023/10/10 12:18:09;;;;;;;;;;;;;;;24.66;100.00;101746.41;5022833;28;20397;-79
2023/10/10 12:20:35;;;;;;;;;;;;;;;24.88;100.00;101751.09;5035527;28;19917;-79
2023/10/10 12:23:00;;;;;;;;;;;;;;;25.04;100.00;101744.69;5044515;28;19941;-80
2023/10/10 12:25:26;;;;;;;;;;;;;;;25.03;100.00;101732.34;5020489;28;20396;-79
2023/10/10 12:27:54;;;;;;;;;;;;;;;25.05;100.00;101736.59;5011182;28;19925;-80
2023/10/10 12:30:19;;;;;;;;;;;;;;;25.04;100.00;101734.88;5026663;28;20319;-80
2023/10/10 12:32:49;;;;;;;;;;;;;;;25.16;100.00;101733.22;5043535;28;20361;-79
2023/10/10 12:35:14;;;;;;;;;;;;;;;25.18;100.00;101726.81;5023858;28;20372;-79
2023/10/10 12:37:39;;;;;;;;;;;;;;;25.03;100.00;101727.84;5005953;28;19978;-80
2023/10/10 12:40:09;;;;;;;;;;;;;;;24.97;100.00;101722.94;5015780;28;19921;-79
2023/10/10 12:42:34;;;;;;;;;;;;;;;24.59;100.00;101714.94;5017057;28;19948;-79
2023/10/10 12:45:01;;;;;;;;;;;;;;;24.00;100.00;101732.19;5010497;28;20465;-79
2023/10/10 12:47:27;;;;;;;;;;;;;;;23.35;100.00;101721.28;5006680;28;20008;-79
2023/10/10 12:49:56;;;;;;;;;;;;;;;22.75;100.00;101718.78;5020578;28;19917;-79
2023/10/10 12:52:21;;;;;;;;;;;;;;;22.22;100.00;101728.16;5006665;28;19917;-78
2023/10/10 12:54:56;;;;;;;;;;;;;;;21.82;99.83;101728.63;5020714;28;19917;-78
2023/10/10 12:57:23;;;;;;;;;;;;;;;21.47;100.00;101720.81;5020151;28;19920;-78
2023/10/10 12:59:51;;;;;;;;;;;;;;;21.24;100.00;101716.75;5022957;28;19940;-79
2023/10/10 13:02:16;;;;;;;;;;;;;;;21.06;100.00;101720.41;5017886;28;19917;-78
2023/10/10 13:04:46;;;;;;;;;;;;;;;20.95;100.00;101722.75;5016114;28;19961;-78
2023/10/10 13:07:11;;;;;;;;;;;;;;;20.88;100.00;101716.06;5021133;28;19926;-78
2023/10/10 13:09:42;;;;;;;;;;;;;;;20.77;100.00;101714.00;5017062;28;20292;-79
2023/10/10 13:12:08;;;;;;;;;;;;;;;20.63;100.00;101717.34;5022503;28;20365;-78
2023/10/10 13:14:33;;;;;;;;;;;;;;;20.52;100.00;101722.34;5012347;27;19917;-79
2023/10/10 13:19:59;;;;;;;;;;;;;;;20.45;100.00;101712.97;4979890;28;19925;-78
2023/10/10 13:22:28;;;;;;;;;;;;;;;20.58;100.00;101711.44;5014630;28;19917;-81
2023/10/10 13:24:54;;;;;;;;;;;;;;;20.72;100.00;101718.66;5043869;28;19917;-78
2023/10/10 13:27:21;;;;;;;;;;;;;;;20.89;100.00;101715.13;5017738;28;19923;-79
2023/10/10 13:29:47;;;;;;;;;;;;;;;21.05;100.00;101705.41;5012476;28;19917;-77
2023/10/10 13:32:12;;;;;;;;;;;;;;;21.18;100.00;101714.44;5024415;28;19978;-78
2023/10/10 13:34:37;;;;;;;;;;;;;;;21.21;100.00;101716.91;5017182;28;19924;-77
2023/10/10 13:37:07;;;;;;;;;;;;;;;21.20;100.00;101717.88;5009669;28;19920;-77
2023/10/10 13:39:43;;;;;;;;;;;;;;;21.16;100.00;101712.81;5042473;28;20358;-77
2023/10/10 13:42:08;;;;;;;;;;;;;;;21.21;100.00;101713.41;5012124;28;20005;-77
2023/10/10 13:44:34;;;;;;;;;;;;;;;21.22;100.00;101713.34;5026092;28;20004;-77
2023/10/10 13:47:00;;;;;;;;;;;;;;;21.12;100.00;101711.25;5032201;28;20357;-77
2023/10/10 13:49:25;;;;;;;;;;;;;;;21.04;100.00;101703.72;5010242;28;20276;-78
2023/10/10 13:51:52;;;;;;;;;;;;;;;20.93;100.00;101700.81;5021683;28;19921;-78
2023/10/10 13:54:19;;;;;;;;;;;;;;;20.78;100.00;101707.75;5020979;28;19926;-77
2023/10/10 13:56:44;;;;;;;;;;;;;;;20.67;100.00;101699.53;5016511;28;19917;-78
2023/10/10 13:59:11;;;;;;;;;;;;;;;20.58;100.00;101699.06;5014952;28;19925;-78
2023/10/10 14:01:36;;;;;;;;;;;;;;;20.52;100.00;101696.72;5021284;28;19917;-77
2023/10/10 14:04:15;;;;;;;;;;;;;;;20.46;100.00;101691.69;5020127;28;20368;-78
2023/10/10 14:06:47;;;;;;;;;;;;;;;20.42;100.00;101700.75;4993955;28;19929;-78
2023/10/10 14:09:22;;;;;;;;;;;;;;;20.40;100.00;101688.50;5039138;28;19924;-77
2023/10/10 14:11:49;;;;;;;;;;;;;;;20.36;100.00;101693.09;5028416;28;19939;-77
2023/10/10 14:14:14;;;;;;;;;;;;;;;20.29;100.00;101689.91;5042470;28;20292;-77
2023/10/10 14:16:40;;;;;;;;;;;;;;;20.30;100.00;101690.78;5029661;28;19924;-78
2023/10/10 14:19:05;;;;;;;;;;;;;;;20.27;100.00;101693.56;5044103;28;19915;-78
2023/10/10 14:21:30;;;;;;;;;;;;;;;20.24;100.00;101691.97;5029274;28;20007;-78
2023/10/10 14:24:07;;;;;;;;;;;;;;;20.22;100.00;101688.53;5046594;28;19922;-78
2023/10/10 14:26:34;;;;;;;;;;;;;;;20.24;100.00;101684.00;5040690;28;19924;-78
2023/10/10 14:29:04;;;;;;;;;;;;;;;20.27;100.00;101677.69;5039954;28;20251;-78
2023/10/10 14:31:31;;;;;;;;;;;;;;;20.28;100.00;101680.28;5023868;28;19917;-78
2023/10/10 14:33:59;;;;;;;;;;;;;;;20.34;100.00;101676.47;5039725;28;19920;-77
2023/10/10 14:36:26;;;;;;;;;;;;;;;20.42;100.00;101668.97;5035170;28;19913;-78
2023/10/10 14:38:52;;;;;;;;;;;;;;;20.53;100.00;101663.97;5032258;28;19924;-78
2023/10/10 14:41:19;;;;;;;;;;;;;;;20.66;100.00;101661.56;5044716;28;19925;-78
2023/10/10 14:43:48;;;;;;;;;;;;;;;20.81;100.00;101658.09;5011415;28;19921;-78